TimeMST,TemperatureF,Dew PointF,Humidity,Sea Level PressureIn,VisibilityMPH,Wind Direction,Wind SpeedMPH,Gust SpeedMPH,PrecipitationIn,Events,Conditions,WindDirDegrees,DateUTC
12:53 AM,28.0,19.9,72,30.40,10.0,South,4.6,-,N/A,,Mostly Cloudy,170,2012-11-13 07:53:00
2:53 AM,27.0,19.9,75,30.39,10.0,Calm,Calm,-,N/A,,Partly Cloudy,0,2012-11-13 09:53:00
3:53 AM,26.1,19.9,78,30.40,10.0,South,3.5,-,N/A,,Mostly Cloudy,170,2012-11-13 10:53:00
4:53 AM,23.0,19.0,85,30.43,10.0,SE,4.6,-,N/A,,Partly Cloudy,130,2012-11-13 11:53:00
5:53 AM,23.0,19.0,85,30.45,10.0,SSE,4.6,-,N/A,,Clear,150,2012-11-13 12:53:00
6:53 AM,21.9,17.1,82,30.47,10.0,South,4.6,-,N/A,,Clear,170,2012-11-13 13:53:00
7:53 AM,24.1,18.0,77,30.48,10.0,SE,4.6,-,N/A,,Clear,140,2012-11-13 14:53:00
8:53 AM,28.9,18.0,64,30.47,10.0,Calm,Calm,-,N/A,,Clear,0,2012-11-13 15:53:00
9:53 AM,33.1,19.0,56,30.45,10.0,Calm,Calm,-,N/A,,Clear,0,2012-11-13 16:53:00
10:53 AM,35.1,17.1,48,30.43,10.0,Calm,Calm,-,N/A,,Clear,0,2012-11-13 17:53:00
11:53 AM,39.0,18.0,43,30.37,10.0,Calm,Calm,-,N/A,,Clear,0,2012-11-13 18:53:00
12:53 PM,43.0,19.0,38,30.33,10.0,North,3.5,-,N/A,,Clear,10,2012-11-13 19:53:00
1:53 PM,44.1,16.0,32,30.32,10.0,Calm,Calm,-,N/A,,Clear,0,2012-11-13 20:53:00
2:53 PM,46.0,15.1,29,30.30,10.0,Calm,Calm,-,N/A,,Clear,0,2012-11-13 21:53:00
3:53 PM,46.0,15.1,29,30.31,10.0,North,3.5,-,N/A,,Clear,350,2012-11-13 22:53:00
4:53 PM,42.1,18.0,38,30.33,10.0,NNW,3.5,-,N/A,,Clear,340,2012-11-13 23:53:00
5:53 PM,37.9,19.9,48,30.37,10.0,Calm,Calm,-,N/A,,Clear,0,2012-11-14 00:53:00
6:53 PM,33.1,21.0,61,30.40,10.0,SSE,6.9,-,N/A,,Clear,160,2012-11-14 01:53:00
7:53 PM,30.9,21.9,69,30.41,10.0,SSE,8.1,-,N/A,,Clear,150,2012-11-14 02:53:00
8:53 PM,28.9,21.9,75,30.41,10.0,SSE,6.9,-,N/A,,Clear,160,2012-11-14 03:53:00
9:53 PM,27.0,21.0,78,30.40,10.0,SSE,8.1,-,N/A,,Clear,150,2012-11-14 04:53:00
10:53 PM,26.1,19.9,78,30.40,10.0,SSE,8.1,-,N/A,,Clear,150,2012-11-14 05:53:00
11:53 PM,25.0,19.0,78,30.39,10.0,South,5.8,-,N/A,,Clear,170,2012-11-14 06:53:00